sensor_id;sensor_type;location;lat;lon;timestamp;P1;durP1;ratioP1;P2;durP2;ratioP2
8247;SDS011;4164;49.844;8.830;2023-03-08T00:00:04;7.13;;;4.93;;
8247;SDS011;4164;49.844;8.830;2023-03-08T00:02:32;8.17;;;4.47;;
8247;SDS011;4164;49.844;8.830;2023-03-08T00:04:58;6.77;;;4.50;;
8247;SDS011;4164;49.844;8.830;2023-03-08T00:07:23;8.43;;;5.37;;
8247;SDS011;4164;49.844;8.830;2023-03-08T00:09:49;7.07;;;4.50;;
8247;SDS011;4164;49.844;8.830;2023-03-08T00:12:14;6.67;;;4.67;;
8247;SDS011;4164;49.844;8.830;2023-03-08T00:14:43;5.87;;;4.80;;
8247;SDS011;4164;49.844;8.830;2023-03-08T00:17:09;6.43;;;4.10;;
8247;SDS011;4164;49.844;8.830;2023-03-08T00:19:34;6.53;;;4.30;;
8247;SDS011;4164;49.844;8.830;2023-03-08T00:22:00;7.10;;;4.67;;
8247;SDS011;4164;49.844;8.830;2023-03-08T00:24:25;6.07;;;4.07;;
8247;SDS011;4164;49.844;8.830;2023-03-08T00:26:51;5.67;;;4.27;;
8247;SDS011;4164;49.844;8.830;2023-03-08T00:29:16;7.67;;;4.87;;
8247;SDS011;4164;49.844;8.830;2023-03-08T00:31:42;6.37;;;4.73;;
8247;SDS011;4164;49.844;8.830;2023-03-08T00:34:07;5.63;;;4.10;;
8247;SDS011;4164;49.844;8.830;2023-03-08T00:36:33;5.23;;;3.83;;
8247;SDS011;4164;49.844;8.830;2023-03-08T00:38:58;4.77;;;3.53;;
8247;SDS011;4164;49.844;8.830;2023-03-08T00:41:24;5.43;;;3.77;;
8247;SDS011;4164;49.844;8.830;2023-03-08T00:43:49;5.17;;;3.70;;
8247;SDS011;4164;49.844;8.830;2023-03-08T00:46:15;6.47;;;4.30;;
8247;SDS011;4164;49.844;8.830;2023-03-08T00:48:41;5.20;;;3.50;;
8247;SDS011;4164;49.844;8.830;2023-03-08T00:51:07;6.03;;;3.67;;
8247;SDS011;4164;49.844;8.830;2023-03-08T00:53:35;7.20;;;4.17;;
8247;SDS011;4164;49.844;8.830;2023-03-08T00:56:01;7.80;;;3.70;;
8247;SDS011;4164;49.844;8.830;2023-03-08T00:58:27;6.70;;;3.73;;
8247;SDS011;4164;49.844;8.830;2023-03-08T01:00:54;7.03;;;4.00;;
8247;SDS011;4164;49.844;8.830;2023-03-08T01:03:20;5.43;;;3.80;;
8247;SDS011;4164;49.844;8.830;2023-03-08T01:05:47;6.33;;;4.03;;
8247;SDS011;4164;49.844;8.830;2023-03-08T01:08:15;6.37;;;3.60;;
8247;SDS011;4164;49.844;8.830;2023-03-08T01:10:48;7.43;;;4.43;;
8247;SDS011;4164;49.844;8.830;2023-03-08T01:13:18;6.20;;;4.10;;
8247;SDS011;4164;49.844;8.830;2023-03-08T01:15:44;7.83;;;4.00;;
8247;SDS011;4164;49.844;8.830;2023-03-08T01:18:10;5.00;;;3.73;;
8247;SDS011;4164;49.844;8.830;2023-03-08T01:20:36;5.23;;;3.50;;
8247;SDS011;4164;49.844;8.830;2023-03-08T01:23:02;4.23;;;3.53;;
8247;SDS011;4164;49.844;8.830;2023-03-08T01:25:27;6.70;;;3.60;;
8247;SDS011;4164;49.844;8.830;2023-03-08T01:27:53;5.73;;;4.00;;
8247;SDS011;4164;49.844;8.830;2023-03-08T01:30:18;5.43;;;3.13;;
8247;SDS011;4164;49.844;8.830;2023-03-08T01:32:44;5.43;;;3.90;;
8247;SDS011;4164;49.844;8.830;2023-03-08T01:35:10;6.23;;;3.83;;
8247;SDS011;4164;49.844;8.830;2023-03-08T01:37:35;5.77;;;3.87;;
8247;SDS011;4164;49.844;8.830;2023-03-08T01:40:01;5.50;;;4.23;;
8247;SDS011;4164;49.844;8.830;2023-03-08T01:42:29;8.37;;;5.27;;
8247;SDS011;4164;49.844;8.830;2023-03-08T01:45:00;14.07;;;7.70;;
8247;SDS011;4164;49.844;8.830;2023-03-08T01:47:29;12.63;;;7.10;;
8247;SDS011;4164;49.844;8.830;2023-03-08T01:50:02;12.30;;;7.23;;
8247;SDS011;4164;49.844;8.830;2023-03-08T01:52:42;11.20;;;7.13;;
8247;SDS011;4164;49.844;8.830;2023-03-08T01:55:13;12.57;;;7.17;;
8247;SDS011;4164;49.844;8.830;2023-03-08T01:57:41;12.20;;;6.17;;
8247;SDS011;4164;49.844;8.830;2023-03-08T02:00:12;12.20;;;6.73;;
8247;SDS011;4164;49.844;8.830;2023-03-08T02:02:42;10.77;;;6.93;;
8247;SDS011;4164;49.844;8.830;2023-03-08T02:05:13;10.07;;;6.13;;
8247;SDS011;4164;49.844;8.830;2023-03-08T02:07:40;13.93;;;7.63;;
8247;SDS011;4164;49.844;8.830;2023-03-08T02:10:05;12.67;;;7.00;;
8247;SDS011;4164;49.844;8.830;2023-03-08T02:12:32;11.33;;;6.73;;
8247;SDS011;4164;49.844;8.830;2023-03-08T02:14:58;11.33;;;6.27;;
8247;SDS011;4164;49.844;8.830;2023-03-08T02:17:26;9.63;;;6.77;;
8247;SDS011;4164;49.844;8.830;2023-03-08T02:19:53;13.30;;;7.57;;
8247;SDS011;4164;49.844;8.830;2023-03-08T02:22:23;11.47;;;6.80;;
8247;SDS011;4164;49.844;8.830;2023-03-08T02:24:50;11.03;;;6.47;;
8247;SDS011;4164;49.844;8.830;2023-03-08T02:27:17;11.60;;;7.10;;
8247;SDS011;4164;49.844;8.830;2023-03-08T02:29:47;12.67;;;6.97;;
8247;SDS011;4164;49.844;8.830;2023-03-08T02:32:13;10.67;;;6.50;;
8247;SDS011;4164;49.844;8.830;2023-03-08T02:34:39;12.90;;;7.03;;
8247;SDS011;4164;49.844;8.830;2023-03-08T02:37:05;10.47;;;6.17;;
8247;SDS011;4164;49.844;8.830;2023-03-08T02:39:40;13.07;;;6.50;;
8247;SDS011;4164;49.844;8.830;2023-03-08T02:42:06;12.17;;;6.57;;
8247;SDS011;4164;49.844;8.830;2023-03-08T02:44:31;12.17;;;7.30;;
8247;SDS011;4164;49.844;8.830;2023-03-08T02:46:57;11.23;;;7.00;;
8247;SDS011;4164;49.844;8.830;2023-03-08T02:49:22;11.07;;;6.70;;
8247;SDS011;4164;49.844;8.830;2023-03-08T02:51:48;9.37;;;6.37;;
8247;SDS011;4164;49.844;8.830;2023-03-08T02:54:13;12.57;;;7.23;;
8247;SDS011;4164;49.844;8.830;2023-03-08T02:56:39;11.03;;;6.67;;
8247;SDS011;4164;49.844;8.830;2023-03-08T02:59:05;11.10;;;6.70;;
8247;SDS011;4164;49.844;8.830;2023-03-08T03:01:30;8.23;;;5.97;;
8247;SDS011;4164;49.844;8.830;2023-03-08T03:03:56;11.37;;;6.20;;
8247;SDS011;4164;49.844;8.830;2023-03-08T03:06:21;13.00;;;7.43;;
8247;SDS011;4164;49.844;8.830;2023-03-08T03:08:47;9.27;;;5.97;;
8247;SDS011;4164;49.844;8.830;2023-03-08T03:11:14;12.13;;;6.37;;
8247;SDS011;4164;49.844;8.830;2023-03-08T03:13:41;11.10;;;6.63;;
8247;SDS011;4164;49.844;8.830;2023-03-08T03:16:07;10.77;;;6.43;;
8247;SDS011;4164;49.844;8.830;2023-03-08T03:18:35;10.10;;;6.20;;
8247;SDS011;4164;49.844;8.830;2023-03-08T03:21:04;11.00;;;6.77;;
8247;SDS011;4164;49.844;8.830;2023-03-08T03:23:31;11.37;;;6.80;;
8247;SDS011;4164;49.844;8.830;2023-03-08T03:26:02;13.60;;;6.97;;
8247;SDS011;4164;49.844;8.830;2023-03-08T03:28:33;10.63;;;7.33;;
8247;SDS011;4164;49.844;8.830;2023-03-08T03:30:58;11.60;;;6.50;;
8247;SDS011;4164;49.844;8.830;2023-03-08T03:33:24;13.90;;;7.43;;
8247;SDS011;4164;49.844;8.830;2023-03-08T03:35:49;12.20;;;7.37;;
8247;SDS011;4164;49.844;8.830;2023-03-08T03:38:15;12.03;;;6.63;;
8247;SDS011;4164;49.844;8.830;2023-03-08T03:40:41;12.53;;;7.40;;
8247;SDS011;4164;49.844;8.830;2023-03-08T03:43:06;12.03;;;7.33;;
8247;SDS011;4164;49.844;8.830;2023-03-08T03:45:32;12.77;;;6.77;;
8247;SDS011;4164;49.844;8.830;2023-03-08T03:47:57;11.40;;;6.33;;
8247;SDS011;4164;49.844;8.830;2023-03-08T03:50:23;11.83;;;6.80;;
8247;SDS011;4164;49.844;8.830;2023-03-08T03:52:48;12.37;;;7.40;;
8247;SDS011;4164;49.844;8.830;2023-03-08T03:55:14;12.13;;;7.83;;
8247;SDS011;4164;49.844;8.830;2023-03-08T03:57:39;12.37;;;7.53;;
8247;SDS011;4164;49.844;8.830;2023-03-08T04:00:06;11.40;;;6.87;;
8247;SDS011;4164;49.844;8.830;2023-03-08T04:02:32;16.63;;;7.47;;
8247;SDS011;4164;49.844;8.830;2023-03-08T04:04:58;10.47;;;6.90;;
8247;SDS011;4164;49.844;8.830;2023-03-08T04:07:23;12.73;;;7.53;;
8247;SDS011;4164;49.844;8.830;2023-03-08T04:09:49;11.43;;;6.47;;
8247;SDS011;4164;49.844;8.830;2023-03-08T04:12:14;12.37;;;6.60;;
8247;SDS011;4164;49.844;8.830;2023-03-08T04:14:40;11.07;;;6.90;;
8247;SDS011;4164;49.844;8.830;2023-03-08T04:17:06;10.87;;;6.77;;
8247;SDS011;4164;49.844;8.830;2023-03-08T04:19:32;13.67;;;7.07;;
8247;SDS011;4164;49.844;8.830;2023-03-08T04:21:57;13.53;;;6.60;;
8247;SDS011;4164;49.844;8.830;2023-03-08T04:24:23;10.90;;;6.77;;
8247;SDS011;4164;49.844;8.830;2023-03-08T04:26:48;13.07;;;7.07;;
8247;SDS011;4164;49.844;8.830;2023-03-08T04:29:14;12.90;;;7.30;;
8247;SDS011;4164;49.844;8.830;2023-03-08T04:31:39;10.73;;;6.10;;
8247;SDS011;4164;49.844;8.830;2023-03-08T04:34:05;12.93;;;6.87;;
8247;SDS011;4164;49.844;8.830;2023-03-08T04:36:31;12.70;;;7.33;;
8247;SDS011;4164;49.844;8.830;2023-03-08T04:38:56;11.00;;;6.43;;
8247;SDS011;4164;49.844;8.830;2023-03-08T04:41:22;10.87;;;6.20;;
8247;SDS011;4164;49.844;8.830;2023-03-08T04:43:52;11.27;;;7.00;;
8247;SDS011;4164;49.844;8.830;2023-03-08T04:46:20;12.90;;;6.23;;
8247;SDS011;4164;49.844;8.830;2023-03-08T04:48:47;13.77;;;6.80;;
8247;SDS011;4164;49.844;8.830;2023-03-08T04:51:14;11.13;;;6.77;;
8247;SDS011;4164;49.844;8.830;2023-03-08T04:53:40;11.77;;;6.50;;
8247;SDS011;4164;49.844;8.830;2023-03-08T04:56:08;11.93;;;7.50;;
8247;SDS011;4164;49.844;8.830;2023-03-08T04:58:34;13.13;;;7.33;;
8247;SDS011;4164;49.844;8.830;2023-03-08T05:01:07;18.53;;;9.77;;
8247;SDS011;4164;49.844;8.830;2023-03-08T05:03:37;20.47;;;9.10;;
8247;SDS011;4164;49.844;8.830;2023-03-08T05:06:03;23.53;;;10.47;;
8247;SDS011;4164;49.844;8.830;2023-03-08T05:08:29;13.27;;;7.53;;
8247;SDS011;4164;49.844;8.830;2023-03-08T05:10:56;13.07;;;7.17;;
8247;SDS011;4164;49.844;8.830;2023-03-08T05:13:23;12.30;;;7.27;;
8247;SDS011;4164;49.844;8.830;2023-03-08T05:15:50;15.63;;;7.97;;
8247;SDS011;4164;49.844;8.830;2023-03-08T05:18:15;15.97;;;7.83;;
8247;SDS011;4164;49.844;8.830;2023-03-08T05:20:41;12.63;;;7.37;;
8247;SDS011;4164;49.844;8.830;2023-03-08T05:23:06;9.53;;;6.40;;
8247;SDS011;4164;49.844;8.830;2023-03-08T05:25:32;11.87;;;7.50;;
8247;SDS011;4164;49.844;8.830;2023-03-08T05:27:58;13.30;;;6.97;;
8247;SDS011;4164;49.844;8.830;2023-03-08T05:30:24;13.43;;;6.60;;
8247;SDS011;4164;49.844;8.830;2023-03-08T05:32:51;11.23;;;6.47;;
8247;SDS011;4164;49.844;8.830;2023-03-08T05:35:16;14.43;;;6.57;;
8247;SDS011;4164;49.844;8.830;2023-03-08T05:37:42;12.60;;;6.40;;
8247;SDS011;4164;49.844;8.830;2023-03-08T05:40:07;12.00;;;6.63;;
8247;SDS011;4164;49.844;8.830;2023-03-08T05:42:33;12.93;;;7.30;;
8247;SDS011;4164;49.844;8.830;2023-03-08T05:44:59;11.47;;;6.57;;
8247;SDS011;4164;49.844;8.830;2023-03-08T05:47:25;10.70;;;6.80;;
8247;SDS011;4164;49.844;8.830;2023-03-08T05:49:50;14.50;;;7.60;;
8247;SDS011;4164;49.844;8.830;2023-03-08T05:52:16;11.33;;;6.93;;
8247;SDS011;4164;49.844;8.830;2023-03-08T05:54:42;12.53;;;6.27;;
8247;SDS011;4164;49.844;8.830;2023-03-08T05:57:07;13.47;;;7.10;;
8247;SDS011;4164;49.844;8.830;2023-03-08T05:59:33;14.10;;;7.00;;
8247;SDS011;4164;49.844;8.830;2023-03-08T06:01:59;13.23;;;6.33;;
8247;SDS011;4164;49.844;8.830;2023-03-08T06:04:24;11.07;;;6.30;;
8247;SDS011;4164;49.844;8.830;2023-03-08T06:06:50;10.70;;;6.63;;
8247;SDS011;4164;49.844;8.830;2023-03-08T06:09:15;17.20;;;6.50;;
8247;SDS011;4164;49.844;8.830;2023-03-08T06:11:41;16.13;;;8.00;;
8247;SDS011;4164;49.844;8.830;2023-03-08T06:14:07;12.33;;;7.10;;
8247;SDS011;4164;49.844;8.830;2023-03-08T06:16:32;15.73;;;7.40;;
8247;SDS011;4164;49.844;8.830;2023-03-08T06:18:58;13.13;;;8.10;;
8247;SDS011;4164;49.844;8.830;2023-03-08T06:21:25;13.30;;;7.43;;
8247;SDS011;4164;49.844;8.830;2023-03-08T06:23:51;15.03;;;8.10;;
8247;SDS011;4164;49.844;8.830;2023-03-08T06:26:17;15.33;;;8.83;;
8247;SDS011;4164;49.844;8.830;2023-03-08T06:28:43;16.70;;;9.17;;
8247;SDS011;4164;49.844;8.830;2023-03-08T06:31:13;18.53;;;9.00;;
8247;SDS011;4164;49.844;8.830;2023-03-08T06:33:42;18.80;;;10.37;;
8247;SDS011;4164;49.844;8.830;2023-03-08T06:36:10;22.97;;;10.83;;
8247;SDS011;4164;49.844;8.830;2023-03-08T06:38:38;16.23;;;10.20;;
8247;SDS011;4164;49.844;8.830;2023-03-08T06:41:05;20.53;;;10.37;;
8247;SDS011;4164;49.844;8.830;2023-03-08T06:43:32;25.07;;;11.50;;
8247;SDS011;4164;49.844;8.830;2023-03-08T06:45:58;24.93;;;11.27;;
8247;SDS011;4164;49.844;8.830;2023-03-08T06:48:32;19.07;;;10.50;;
8247;SDS011;4164;49.844;8.830;2023-03-08T06:50:58;20.53;;;10.97;;
8247;SDS011;4164;49.844;8.830;2023-03-08T06:53:24;19.63;;;10.70;;
8247;SDS011;4164;49.844;8.830;2023-03-08T06:55:49;17.93;;;10.03;;
8247;SDS011;4164;49.844;8.830;2023-03-08T06:58:15;21.03;;;11.47;;
8247;SDS011;4164;49.844;8.830;2023-03-08T07:00:40;18.67;;;10.47;;
8247;SDS011;4164;49.844;8.830;2023-03-08T07:03:06;18.30;;;10.63;;
8247;SDS011;4164;49.844;8.830;2023-03-08T07:05:32;20.10;;;11.33;;
8247;SDS011;4164;49.844;8.830;2023-03-08T07:07:57;25.23;;;11.93;;
8247;SDS011;4164;49.844;8.830;2023-03-08T07:10:23;20.80;;;10.87;;
8247;SDS011;4164;49.844;8.830;2023-03-08T07:12:49;20.60;;;12.03;;
8247;SDS011;4164;49.844;8.830;2023-03-08T07:15:16;21.80;;;12.07;;
8247;SDS011;4164;49.844;8.830;2023-03-08T07:17:44;23.77;;;12.60;;
8247;SDS011;4164;49.844;8.830;2023-03-08T07:20:11;23.33;;;11.47;;
8247;SDS011;4164;49.844;8.830;2023-03-08T07:22:37;19.20;;;11.27;;
8247;SDS011;4164;49.844;8.830;2023-03-08T07:25:06;19.53;;;11.47;;
8247;SDS011;4164;49.844;8.830;2023-03-08T07:27:32;20.43;;;11.17;;
8247;SDS011;4164;49.844;8.830;2023-03-08T07:29:58;22.23;;;12.47;;
8247;SDS011;4164;49.844;8.830;2023-03-08T07:32:23;21.10;;;11.30;;
8247;SDS011;4164;49.844;8.830;2023-03-08T07:34:52;22.57;;;11.10;;
8247;SDS011;4164;49.844;8.830;2023-03-08T07:37:21;19.73;;;10.30;;
8247;SDS011;4164;49.844;8.830;2023-03-08T07:39:47;22.73;;;10.73;;
8247;SDS011;4164;49.844;8.830;2023-03-08T07:42:12;22.20;;;10.73;;
8247;SDS011;4164;49.844;8.830;2023-03-08T07:44:38;18.70;;;10.53;;
8247;SDS011;4164;49.844;8.830;2023-03-08T07:47:04;20.30;;;10.63;;
8247;SDS011;4164;49.844;8.830;2023-03-08T07:49:30;21.27;;;10.97;;
8247;SDS011;4164;49.844;8.830;2023-03-08T07:51:56;22.73;;;11.77;;
8247;SDS011;4164;49.844;8.830;2023-03-08T07:54:21;23.60;;;11.80;;
8247;SDS011;4164;49.844;8.830;2023-03-08T07:56:47;17.90;;;10.80;;
8247;SDS011;4164;49.844;8.830;2023-03-08T07:59:12;19.90;;;11.23;;
8247;SDS011;4164;49.844;8.830;2023-03-08T08:01:38;20.87;;;10.90;;
8247;SDS011;4164;49.844;8.830;2023-03-08T08:04:04;24.53;;;12.17;;
8247;SDS011;4164;49.844;8.830;2023-03-08T08:06:31;28.23;;;12.90;;
8247;SDS011;4164;49.844;8.830;2023-03-08T08:09:02;20.57;;;11.17;;
8247;SDS011;4164;49.844;8.830;2023-03-08T08:11:28;21.73;;;11.30;;
8247;SDS011;4164;49.844;8.830;2023-03-08T08:13:53;19.30;;;10.37;;
8247;SDS011;4164;49.844;8.830;2023-03-08T08:16:19;21.93;;;11.33;;
8247;SDS011;4164;49.844;8.830;2023-03-08T08:18:44;23.63;;;11.87;;
8247;SDS011;4164;49.844;8.830;2023-03-08T08:21:11;19.03;;;10.73;;
8247;SDS011;4164;49.844;8.830;2023-03-08T08:23:39;20.23;;;11.70;;
8247;SDS011;4164;49.844;8.830;2023-03-08T08:26:06;21.63;;;11.70;;
8247;SDS011;4164;49.844;8.830;2023-03-08T08:28:37;22.30;;;11.00;;
8247;SDS011;4164;49.844;8.830;2023-03-08T08:31:04;22.40;;;11.87;;
8247;SDS011;4164;49.844;8.830;2023-03-08T08:33:38;21.33;;;11.70;;
8247;SDS011;4164;49.844;8.830;2023-03-08T08:36:05;20.50;;;11.33;;
8247;SDS011;4164;49.844;8.830;2023-03-08T08:38:32;20.97;;;11.67;;
8247;SDS011;4164;49.844;8.830;2023-03-08T08:41:02;22.43;;;12.27;;
8247;SDS011;4164;49.844;8.830;2023-03-08T08:43:31;22.57;;;11.27;;
8247;SDS011;4164;49.844;8.830;2023-03-08T08:45:57;22.33;;;11.83;;
8247;SDS011;4164;49.844;8.830;2023-03-08T08:48:23;23.13;;;12.07;;
8247;SDS011;4164;49.844;8.830;2023-03-08T08:50:50;21.60;;;11.83;;
8247;SDS011;4164;49.844;8.830;2023-03-08T08:53:16;26.67;;;13.37;;
8247;SDS011;4164;49.844;8.830;2023-03-08T08:55:42;23.97;;;12.17;;
8247;SDS011;4164;49.844;8.830;2023-03-08T08:58:08;22.77;;;12.93;;
8247;SDS011;4164;49.844;8.830;2023-03-08T09:00:34;22.20;;;12.67;;
8247;SDS011;4164;49.844;8.830;2023-03-08T09:03:00;26.00;;;13.67;;
8247;SDS011;4164;49.844;8.830;2023-03-08T09:05:26;24.60;;;13.93;;
8247;SDS011;4164;49.844;8.830;2023-03-08T09:07:53;32.17;;;17.03;;
8247;SDS011;4164;49.844;8.830;2023-03-08T09:10:19;28.60;;;14.93;;
8247;SDS011;4164;49.844;8.830;2023-03-08T09:12:45;49.77;;;23.60;;
8247;SDS011;4164;49.844;8.830;2023-03-08T09:15:11;34.13;;;18.27;;
8247;SDS011;4164;49.844;8.830;2023-03-08T09:17:37;30.33;;;16.33;;
8247;SDS011;4164;49.844;8.830;2023-03-08T09:20:03;27.03;;;16.17;;
8247;SDS011;4164;49.844;8.830;2023-03-08T09:22:30;26.40;;;15.80;;
8247;SDS011;4164;49.844;8.830;2023-03-08T09:24:56;28.33;;;16.67;;
8247;SDS011;4164;49.844;8.830;2023-03-08T09:27:22;30.63;;;17.47;;
8247;SDS011;4164;49.844;8.830;2023-03-08T09:29:47;31.33;;;16.67;;
8247;SDS011;4164;49.844;8.830;2023-03-08T09:32:13;29.87;;;17.77;;
8247;SDS011;4164;49.844;8.830;2023-03-08T09:34:38;26.70;;;15.90;;
8247;SDS011;4164;49.844;8.830;2023-03-08T09:37:04;26.60;;;14.93;;
8247;SDS011;4164;49.844;8.830;2023-03-08T09:39:32;24.27;;;14.90;;
8247;SDS011;4164;49.844;8.830;2023-03-08T09:41:58;24.20;;;14.33;;
8247;SDS011;4164;49.844;8.830;2023-03-08T09:44:38;21.63;;;13.80;;
8247;SDS011;4164;49.844;8.830;2023-03-08T09:47:33;19.63;;;12.93;;
8247;SDS011;4164;49.844;8.830;2023-03-08T09:55:03;19.87;;;12.20;;
8247;SDS011;4164;49.844;8.830;2023-03-08T09:57:34;51.63;;;22.87;;
8247;SDS011;4164;49.844;8.830;2023-03-08T10:00:03;26.27;;;14.50;;
8247;SDS011;4164;49.844;8.830;2023-03-08T10:10:40;20.77;;;13.27;;
8247;SDS011;4164;49.844;8.830;2023-03-08T10:15:52;18.07;;;11.33;;
8247;SDS011;4164;49.844;8.830;2023-03-08T10:18:30;21.13;;;13.83;;
8247;SDS011;4164;49.844;8.830;2023-03-08T10:21:01;60.80;;;26.50;;
8247;SDS011;4164;49.844;8.830;2023-03-08T10:23:30;68.07;;;29.07;;
8247;SDS011;4164;49.844;8.830;2023-03-08T10:25:57;43.47;;;20.97;;
8247;SDS011;4164;49.844;8.830;2023-03-08T10:28:25;40.60;;;18.90;;
8247;SDS011;4164;49.844;8.830;2023-03-08T10:30:53;20.67;;;11.27;;
8247;SDS011;4164;49.844;8.830;2023-03-08T10:33:22;14.93;;;8.27;;
8247;SDS011;4164;49.844;8.830;2023-03-08T10:36:08;61.83;;;27.73;;
8247;SDS011;4164;49.844;8.830;2023-03-08T10:38:54;15.60;;;9.50;;
8247;SDS011;4164;49.844;8.830;2023-03-08T10:41:42;36.90;;;21.13;;
8247;SDS011;4164;49.844;8.830;2023-03-08T10:44:54;19.83;;;11.33;;
8247;SDS011;4164;49.844;8.830;2023-03-08T10:47:16;11.87;;;7.23;;
8247;SDS011;4164;49.844;8.830;2023-03-08T10:49:42;10.83;;;7.47;;
8247;SDS011;4164;49.844;8.830;2023-03-08T10:52:42;10.47;;;7.13;;
8247;SDS011;4164;49.844;8.830;2023-03-08T10:55:05;10.43;;;7.03;;
8247;SDS011;4164;49.844;8.830;2023-03-08T10:57:38;10.30;;;6.90;;
8247;SDS011;4164;49.844;8.830;2023-03-08T11:03:10;14.13;;;8.67;;
8247;SDS011;4164;49.844;8.830;2023-03-08T11:05:39;11.23;;;7.43;;
8247;SDS011;4164;49.844;8.830;2023-03-08T11:08:16;9.67;;;6.53;;
8247;SDS011;4164;49.844;8.830;2023-03-08T11:10:44;10.27;;;6.57;;
8247;SDS011;4164;49.844;8.830;2023-03-08T11:13:20;8.47;;;6.40;;
8247;SDS011;4164;49.844;8.830;2023-03-08T11:15:58;9.37;;;6.43;;
8247;SDS011;4164;49.844;8.830;2023-03-08T11:18:45;8.60;;;6.60;;
8247;SDS011;4164;49.844;8.830;2023-03-08T11:21:17;9.47;;;6.17;;
8247;SDS011;4164;49.844;8.830;2023-03-08T11:24:02;10.50;;;6.67;;
8247;SDS011;4164;49.844;8.830;2023-03-08T11:38:29;11.97;;;7.17;;
8247;SDS011;4164;49.844;8.830;2023-03-08T11:44:06;14.70;;;7.97;;
8247;SDS011;4164;49.844;8.830;2023-03-08T11:54:32;13.37;;;8.00;;
8247;SDS011;4164;49.844;8.830;2023-03-08T11:57:11;12.70;;;7.97;;
8247;SDS011;4164;49.844;8.830;2023-03-08T11:59:41;12.67;;;9.10;;
8247;SDS011;4164;49.844;8.830;2023-03-08T12:02:22;11.07;;;8.10;;
8247;SDS011;4164;49.844;8.830;2023-03-08T12:05:13;13.03;;;8.77;;
8247;SDS011;4164;49.844;8.830;2023-03-08T12:07:52;12.93;;;8.33;;
8247;SDS011;4164;49.844;8.830;2023-03-08T12:12:58;14.27;;;8.70;;
8247;SDS011;4164;49.844;8.830;2023-03-08T12:15:51;11.80;;;8.40;;
8247;SDS011;4164;49.844;8.830;2023-03-08T12:18:45;13.60;;;8.90;;
8247;SDS011;4164;49.844;8.830;2023-03-08T12:21:20;14.93;;;10.20;;
8247;SDS011;4164;49.844;8.830;2023-03-08T12:23:56;14.93;;;11.07;;
8247;SDS011;4164;49.844;8.830;2023-03-08T12:26:58;13.87;;;9.63;;
8247;SDS011;4164;49.844;8.830;2023-03-08T12:29:44;11.57;;;8.40;;
8247;SDS011;4164;49.844;8.830;2023-03-08T12:32:18;18.70;;;14.27;;
8247;SDS011;4164;49.844;8.830;2023-03-08T12:34:45;13.13;;;9.30;;
8247;SDS011;4164;49.844;8.830;2023-03-08T12:39:54;14.87;;;10.23;;
8247;SDS011;4164;49.844;8.830;2023-03-08T12:42:29;14.00;;;10.17;;
8247;SDS011;4164;49.844;8.830;2023-03-08T12:45:04;13.67;;;9.80;;
8247;SDS011;4164;49.844;8.830;2023-03-08T12:48:00;15.80;;;10.97;;
8247;SDS011;4164;49.844;8.830;2023-03-08T12:50:43;16.73;;;11.63;;
8247;SDS011;4164;49.844;8.830;2023-03-08T12:53:24;16.43;;;11.60;;
8247;SDS011;4164;49.844;8.830;2023-03-08T12:55:59;15.30;;;11.07;;
8247;SDS011;4164;49.844;8.830;2023-03-08T12:58:27;16.53;;;11.77;;
8247;SDS011;4164;49.844;8.830;2023-03-08T13:00:56;17.17;;;12.37;;
8247;SDS011;4164;49.844;8.830;2023-03-08T13:03:26;22.70;;;13.27;;
8247;SDS011;4164;49.844;8.830;2023-03-08T13:06:15;14.50;;;11.07;;
8247;SDS011;4164;49.844;8.830;2023-03-08T13:11:51;17.97;;;11.87;;
8247;SDS011;4164;49.844;8.830;2023-03-08T13:14:38;21.77;;;13.23;;
8247;SDS011;4164;49.844;8.830;2023-03-08T13:19:53;16.93;;;11.27;;
8247;SDS011;4164;49.844;8.830;2023-03-08T13:22:22;20.60;;;15.17;;
8247;SDS011;4164;49.844;8.830;2023-03-08T13:24:54;16.23;;;11.97;;
8247;SDS011;4164;49.844;8.830;2023-03-08T13:27:25;16.67;;;12.43;;
8247;SDS011;4164;49.844;8.830;2023-03-08T13:32:49;18.70;;;12.20;;
8247;SDS011;4164;49.844;8.830;2023-03-08T13:35:16;18.10;;;12.43;;
8247;SDS011;4164;49.844;8.830;2023-03-08T13:37:42;14.57;;;12.13;;
8247;SDS011;4164;49.844;8.830;2023-03-08T13:40:17;19.27;;;17.27;;
8247;SDS011;4164;49.844;8.830;2023-03-08T13:42:57;21.30;;;14.30;;
8247;SDS011;4164;49.844;8.830;2023-03-08T13:45:27;17.13;;;11.07;;
8247;SDS011;4164;49.844;8.830;2023-03-08T13:47:53;17.47;;;12.10;;
8247;SDS011;4164;49.844;8.830;2023-03-08T13:50:26;14.27;;;11.00;;
8247;SDS011;4164;49.844;8.830;2023-03-08T13:52:57;17.57;;;11.10;;
8247;SDS011;4164;49.844;8.830;2023-03-08T13:55:27;13.57;;;9.93;;
8247;SDS011;4164;49.844;8.830;2023-03-08T13:57:58;14.37;;;9.90;;
8247;SDS011;4164;49.844;8.830;2023-03-08T14:00:26;16.63;;;11.43;;
8247;SDS011;4164;49.844;8.830;2023-03-08T14:02:57;12.17;;;8.73;;
8247;SDS011;4164;49.844;8.830;2023-03-08T14:05:26;13.13;;;9.70;;
8247;SDS011;4164;49.844;8.830;2023-03-08T14:08:01;12.97;;;9.00;;
8247;SDS011;4164;49.844;8.830;2023-03-08T14:10:35;14.30;;;8.83;;
8247;SDS011;4164;49.844;8.830;2023-03-08T14:13:05;11.93;;;8.70;;
8247;SDS011;4164;49.844;8.830;2023-03-08T14:16:01;12.07;;;9.13;;
8247;SDS011;4164;49.844;8.830;2023-03-08T14:18:33;15.63;;;10.60;;
8247;SDS011;4164;49.844;8.830;2023-03-08T14:21:14;20.83;;;12.23;;
8247;SDS011;4164;49.844;8.830;2023-03-08T14:23:45;20.47;;;12.33;;
8247;SDS011;4164;49.844;8.830;2023-03-08T14:26:29;13.40;;;9.50;;
8247;SDS011;4164;49.844;8.830;2023-03-08T14:29:18;15.00;;;10.03;;
8247;SDS011;4164;49.844;8.830;2023-03-08T14:37:42;10.47;;;8.30;;
8247;SDS011;4164;49.844;8.830;2023-03-08T14:39:48;12.97;;;8.70;;
8247;SDS011;4164;49.844;8.830;2023-03-08T14:42:26;11.90;;;6.87;;
8247;SDS011;4164;49.844;8.830;2023-03-08T14:45:00;10.90;;;7.17;;
8247;SDS011;4164;49.844;8.830;2023-03-08T14:47:32;10.83;;;7.17;;
8247;SDS011;4164;49.844;8.830;2023-03-08T14:50:00;10.57;;;6.80;;
8247;SDS011;4164;49.844;8.830;2023-03-08T14:52:33;10.57;;;6.47;;
8247;SDS011;4164;49.844;8.830;2023-03-08T14:55:00;9.07;;;6.50;;
8247;SDS011;4164;49.844;8.830;2023-03-08T14:57:27;11.43;;;6.57;;
8247;SDS011;4164;49.844;8.830;2023-03-08T15:00:03;8.57;;;6.53;;
8247;SDS011;4164;49.844;8.830;2023-03-08T15:02:38;10.97;;;6.87;;
8247;SDS011;4164;49.844;8.830;2023-03-08T15:05:04;10.20;;;6.00;;
8247;SDS011;4164;49.844;8.830;2023-03-08T15:07:32;10.20;;;6.07;;
8247;SDS011;4164;49.844;8.830;2023-03-08T15:10:00;15.20;;;7.97;;
8247;SDS011;4164;49.844;8.830;2023-03-08T15:12:28;8.17;;;5.87;;
8247;SDS011;4164;49.844;8.830;2023-03-08T15:14:54;8.07;;;5.40;;
8247;SDS011;4164;49.844;8.830;2023-03-08T15:17:19;6.37;;;4.67;;
8247;SDS011;4164;49.844;8.830;2023-03-08T15:19:46;7.90;;;4.93;;
8247;SDS011;4164;49.844;8.830;2023-03-08T15:22:12;6.67;;;4.40;;
8247;SDS011;4164;49.844;8.830;2023-03-08T15:24:38;6.50;;;4.17;;
8247;SDS011;4164;49.844;8.830;2023-03-08T15:27:04;5.50;;;3.70;;
8247;SDS011;4164;49.844;8.830;2023-03-08T15:29:31;6.20;;;3.87;;
8247;SDS011;4164;49.844;8.830;2023-03-08T15:31:58;5.83;;;3.67;;
8247;SDS011;4164;49.844;8.830;2023-03-08T15:34:24;3.67;;;3.17;;
8247;SDS011;4164;49.844;8.830;2023-03-08T15:36:50;4.60;;;3.70;;
8247;SDS011;4164;49.844;8.830;2023-03-08T15:39:17;4.40;;;3.17;;
8247;SDS011;4164;49.844;8.830;2023-03-08T15:41:43;5.93;;;3.07;;
8247;SDS011;4164;49.844;8.830;2023-03-08T15:44:09;3.80;;;3.40;;
8247;SDS011;4164;49.844;8.830;2023-03-08T15:46:34;3.97;;;3.30;;
8247;SDS011;4164;49.844;8.830;2023-03-08T15:49:00;5.17;;;3.30;;
8247;SDS011;4164;49.844;8.830;2023-03-08T15:51:28;3.60;;;3.13;;
8247;SDS011;4164;49.844;8.830;2023-03-08T15:53:57;4.03;;;3.60;;
8247;SDS011;4164;49.844;8.830;2023-03-08T15:56:23;3.70;;;3.30;;
8247;SDS011;4164;49.844;8.830;2023-03-08T15:58:49;4.97;;;3.60;;
8247;SDS011;4164;49.844;8.830;2023-03-08T16:01:16;4.63;;;3.60;;
8247;SDS011;4164;49.844;8.830;2023-03-08T16:03:42;3.97;;;3.57;;
8247;SDS011;4164;49.844;8.830;2023-03-08T16:06:08;5.10;;;4.30;;
8247;SDS011;4164;49.844;8.830;2023-03-08T16:08:35;4.83;;;3.43;;
8247;SDS011;4164;49.844;8.830;2023-03-08T16:11:04;3.90;;;3.27;;